sensor_id;sensor_type;location;lat;lon;timestamp;P1;durP1;ratioP1;P2;durP2;ratioP2
4047;SDS011;2038;51.728;6.674;2023-11-21T00:02:09;16.90;;;11.63;;
4047;SDS011;2038;51.728;6.674;2023-11-21T00:04:36;17.13;;;11.33;;
4047;SDS011;2038;51.728;6.674;2023-11-21T00:07:02;13.90;;;10.17;;
4047;SDS011;2038;51.728;6.674;2023-11-21T00:09:29;19.93;;;10.63;;
4047;SDS011;2038;51.728;6.674;2023-11-21T00:11:55;16.00;;;10.17;;
4047;SDS011;2038;51.728;6.674;2023-11-21T00:14:21;16.53;;;10.93;;
4047;SDS011;2038;51.728;6.674;2023-11-21T00:16:47;12.93;;;9.13;;
4047;SDS011;2038;51.728;6.674;2023-11-21T00:19:13;16.07;;;9.73;;
4047;SDS011;2038;51.728;6.674;2023-11-21T00:21:40;12.47;;;9.40;;
4047;SDS011;2038;51.728;6.674;2023-11-21T00:24:09;16.00;;;10.40;;
4047;SDS011;2038;51.728;6.674;2023-11-21T00:26:38;17.43;;;11.47;;
4047;SDS011;2038;51.728;6.674;2023-11-21T00:29:05;14.50;;;9.43;;
4047;SDS011;2038;51.728;6.674;2023-11-21T00:31:35;11.47;;;9.63;;
4047;SDS011;2038;51.728;6.674;2023-11-21T00:34:04;13.63;;;10.73;;
4047;SDS011;2038;51.728;6.674;2023-11-21T00:36:31;16.53;;;9.60;;
4047;SDS011;2038;51.728;6.674;2023-11-21T00:38:57;16.03;;;11.03;;
4047;SDS011;2038;51.728;6.674;2023-11-21T00:41:24;16.50;;;10.90;;
4047;SDS011;2038;51.728;6.674;2023-11-21T00:43:53;15.87;;;11.20;;
4047;SDS011;2038;51.728;6.674;2023-11-21T00:46:20;15.73;;;9.67;;
4047;SDS011;2038;51.728;6.674;2023-11-21T00:48:46;14.07;;;9.10;;
4047;SDS011;2038;51.728;6.674;2023-11-21T00:51:12;12.50;;;10.27;;
4047;SDS011;2038;51.728;6.674;2023-11-21T00:53:39;17.10;;;10.20;;
4047;SDS011;2038;51.728;6.674;2023-11-21T00:56:05;14.30;;;10.57;;
4047;SDS011;2038;51.728;6.674;2023-11-21T00:58:33;18.47;;;11.07;;
4047;SDS011;2038;51.728;6.674;2023-11-21T01:01:00;11.33;;;9.43;;
4047;SDS011;2038;51.728;6.674;2023-11-21T01:03:27;16.97;;;11.73;;
4047;SDS011;2038;51.728;6.674;2023-11-21T01:05:53;14.50;;;10.70;;
4047;SDS011;2038;51.728;6.674;2023-11-21T01:08:20;27.43;;;12.77;;
4047;SDS011;2038;51.728;6.674;2023-11-21T01:10:46;25.30;;;13.90;;
4047;SDS011;2038;51.728;6.674;2023-11-21T01:13:13;20.63;;;14.97;;
4047;SDS011;2038;51.728;6.674;2023-11-21T01:15:40;27.00;;;15.17;;
4047;SDS011;2038;51.728;6.674;2023-11-21T01:18:07;21.47;;;13.97;;
4047;SDS011;2038;51.728;6.674;2023-11-21T01:20:34;23.57;;;15.10;;
4047;SDS011;2038;51.728;6.674;2023-11-21T01:23:00;32.13;;;16.20;;
4047;SDS011;2038;51.728;6.674;2023-11-21T01:25:26;24.60;;;15.13;;
4047;SDS011;2038;51.728;6.674;2023-11-21T01:27:52;18.93;;;12.90;;
4047;SDS011;2038;51.728;6.674;2023-11-21T01:30:19;31.60;;;16.17;;
4047;SDS011;2038;51.728;6.674;2023-11-21T01:32:45;20.83;;;14.97;;
4047;SDS011;2038;51.728;6.674;2023-11-21T01:35:11;34.90;;;15.10;;
4047;SDS011;2038;51.728;6.674;2023-11-21T01:37:37;22.13;;;12.87;;
4047;SDS011;2038;51.728;6.674;2023-11-21T01:40:04;22.90;;;13.50;;
4047;SDS011;2038;51.728;6.674;2023-11-21T01:42:39;34.00;;;16.40;;
4047;SDS011;2038;51.728;6.674;2023-11-21T01:45:06;24.90;;;15.00;;
4047;SDS011;2038;51.728;6.674;2023-11-21T01:47:34;29.03;;;14.90;;
4047;SDS011;2038;51.728;6.674;2023-11-21T01:50:02;23.33;;;12.43;;
4047;SDS011;2038;51.728;6.674;2023-11-21T01:52:31;23.20;;;14.60;;
4047;SDS011;2038;51.728;6.674;2023-11-21T01:55:01;33.87;;;14.50;;
4047;SDS011;2038;51.728;6.674;2023-11-21T01:57:30;24.23;;;15.63;;
4047;SDS011;2038;51.728;6.674;2023-11-21T01:59:57;25.37;;;13.90;;
4047;SDS011;2038;51.728;6.674;2023-11-21T02:02:36;22.13;;;15.13;;
4047;SDS011;2038;51.728;6.674;2023-11-21T02:05:02;23.13;;;14.80;;
4047;SDS011;2038;51.728;6.674;2023-11-21T02:07:28;25.07;;;15.00;;
4047;SDS011;2038;51.728;6.674;2023-11-21T02:09:55;27.67;;;15.27;;
4047;SDS011;2038;51.728;6.674;2023-11-21T02:12:21;20.97;;;15.20;;
4047;SDS011;2038;51.728;6.674;2023-11-21T02:14:47;26.80;;;16.00;;
4047;SDS011;2038;51.728;6.674;2023-11-21T02:17:13;27.23;;;15.60;;
4047;SDS011;2038;51.728;6.674;2023-11-21T02:19:39;23.67;;;13.80;;
4047;SDS011;2038;51.728;6.674;2023-11-21T02:22:06;32.23;;;17.70;;
4047;SDS011;2038;51.728;6.674;2023-11-21T02:24:32;33.43;;;15.87;;
4047;SDS011;2038;51.728;6.674;2023-11-21T02:26:59;24.93;;;15.27;;
4047;SDS011;2038;51.728;6.674;2023-11-21T02:29:25;32.50;;;18.07;;
4047;SDS011;2038;51.728;6.674;2023-11-21T02:31:53;30.37;;;17.83;;
4047;SDS011;2038;51.728;6.674;2023-11-21T02:34:20;25.47;;;16.37;;
4047;SDS011;2038;51.728;6.674;2023-11-21T02:36:48;30.20;;;17.40;;
4047;SDS011;2038;51.728;6.674;2023-11-21T02:39:14;31.03;;;17.37;;
4047;SDS011;2038;51.728;6.674;2023-11-21T02:41:47;33.73;;;18.20;;
4047;SDS011;2038;51.728;6.674;2023-11-21T02:44:13;33.03;;;17.33;;
4047;SDS011;2038;51.728;6.674;2023-11-21T02:46:39;32.57;;;18.27;;
4047;SDS011;2038;51.728;6.674;2023-11-21T02:49:06;42.93;;;20.57;;
4047;SDS011;2038;51.728;6.674;2023-11-21T02:51:35;32.83;;;18.23;;
4047;SDS011;2038;51.728;6.674;2023-11-21T02:54:03;37.90;;;17.77;;
4047;SDS011;2038;51.728;6.674;2023-11-21T02:56:33;33.30;;;17.20;;
4047;SDS011;2038;51.728;6.674;2023-11-21T02:58:59;35.23;;;18.20;;
4047;SDS011;2038;51.728;6.674;2023-11-21T03:01:26;30.27;;;17.77;;
4047;SDS011;2038;51.728;6.674;2023-11-21T03:03:53;37.57;;;18.67;;
4047;SDS011;2038;51.728;6.674;2023-11-21T03:06:21;33.03;;;16.30;;
4047;SDS011;2038;51.728;6.674;2023-11-21T03:08:47;35.47;;;18.90;;
4047;SDS011;2038;51.728;6.674;2023-11-21T03:11:13;30.17;;;17.83;;
4047;SDS011;2038;51.728;6.674;2023-11-21T03:13:40;32.23;;;17.80;;
4047;SDS011;2038;51.728;6.674;2023-11-21T03:16:10;26.60;;;16.10;;
4047;SDS011;2038;51.728;6.674;2023-11-21T03:18:38;26.90;;;15.73;;
4047;SDS011;2038;51.728;6.674;2023-11-21T03:21:04;34.13;;;16.93;;
4047;SDS011;2038;51.728;6.674;2023-11-21T03:23:33;27.33;;;15.33;;
4047;SDS011;2038;51.728;6.674;2023-11-21T03:26:01;29.83;;;15.60;;
4047;SDS011;2038;51.728;6.674;2023-11-21T03:28:28;24.63;;;14.80;;
4047;SDS011;2038;51.728;6.674;2023-11-21T03:30:57;30.27;;;17.67;;
4047;SDS011;2038;51.728;6.674;2023-11-21T03:33:24;30.20;;;17.20;;
4047;SDS011;2038;51.728;6.674;2023-11-21T03:35:50;25.83;;;16.83;;
4047;SDS011;2038;51.728;6.674;2023-11-21T03:38:17;27.17;;;15.80;;
4047;SDS011;2038;51.728;6.674;2023-11-21T03:40:44;35.17;;;18.00;;
4047;SDS011;2038;51.728;6.674;2023-11-21T03:43:10;33.43;;;19.77;;
4047;SDS011;2038;51.728;6.674;2023-11-21T03:45:37;28.80;;;17.93;;
4047;SDS011;2038;51.728;6.674;2023-11-21T03:48:05;30.30;;;18.07;;
4047;SDS011;2038;51.728;6.674;2023-11-21T03:50:32;44.63;;;20.23;;
4047;SDS011;2038;51.728;6.674;2023-11-21T03:52:58;35.00;;;19.80;;
4047;SDS011;2038;51.728;6.674;2023-11-21T03:55:24;39.47;;;19.33;;
4047;SDS011;2038;51.728;6.674;2023-11-21T03:57:51;28.17;;;17.93;;
4047;SDS011;2038;51.728;6.674;2023-11-21T04:00:17;34.30;;;17.90;;
4047;SDS011;2038;51.728;6.674;2023-11-21T04:02:47;33.00;;;19.63;;
4047;SDS011;2038;51.728;6.674;2023-11-21T04:05:13;30.30;;;17.57;;
4047;SDS011;2038;51.728;6.674;2023-11-21T04:07:39;27.07;;;16.60;;
4047;SDS011;2038;51.728;6.674;2023-11-21T04:10:06;26.47;;;15.20;;
4047;SDS011;2038;51.728;6.674;2023-11-21T04:12:34;21.90;;;14.27;;
4047;SDS011;2038;51.728;6.674;2023-11-21T04:15:01;26.70;;;16.20;;
4047;SDS011;2038;51.728;6.674;2023-11-21T04:17:28;31.30;;;18.13;;
4047;SDS011;2038;51.728;6.674;2023-11-21T04:19:54;26.80;;;15.93;;
4047;SDS011;2038;51.728;6.674;2023-11-21T04:22:20;28.03;;;16.43;;
4047;SDS011;2038;51.728;6.674;2023-11-21T04:24:47;27.20;;;16.60;;
4047;SDS011;2038;51.728;6.674;2023-11-21T04:27:14;29.97;;;17.93;;
4047;SDS011;2038;51.728;6.674;2023-11-21T04:29:42;41.20;;;21.83;;
4047;SDS011;2038;51.728;6.674;2023-11-21T04:32:09;37.90;;;19.57;;
4047;SDS011;2038;51.728;6.674;2023-11-21T04:34:35;29.13;;;16.80;;
4047;SDS011;2038;51.728;6.674;2023-11-21T04:37:02;32.60;;;18.00;;
4047;SDS011;2038;51.728;6.674;2023-11-21T04:39:31;26.70;;;15.73;;
4047;SDS011;2038;51.728;6.674;2023-11-21T04:41:57;23.83;;;15.60;;
4047;SDS011;2038;51.728;6.674;2023-11-21T04:44:23;36.47;;;20.03;;
4047;SDS011;2038;51.728;6.674;2023-11-21T04:46:50;38.60;;;19.63;;
4047;SDS011;2038;51.728;6.674;2023-11-21T04:49:16;35.10;;;17.70;;
4047;SDS011;2038;51.728;6.674;2023-11-21T04:51:42;47.20;;;21.43;;
4047;SDS011;2038;51.728;6.674;2023-11-21T04:54:08;41.50;;;22.37;;
4047;SDS011;2038;51.728;6.674;2023-11-21T04:56:35;36.33;;;21.40;;
4047;SDS011;2038;51.728;6.674;2023-11-21T04:59:01;37.10;;;21.87;;
4047;SDS011;2038;51.728;6.674;2023-11-21T05:01:27;41.70;;;24.70;;
4047;SDS011;2038;51.728;6.674;2023-11-21T05:03:54;56.53;;;24.60;;
4047;SDS011;2038;51.728;6.674;2023-11-21T05:06:21;48.93;;;24.67;;
4047;SDS011;2038;51.728;6.674;2023-11-21T05:08:48;48.33;;;23.10;;
4047;SDS011;2038;51.728;6.674;2023-11-21T05:11:25;50.73;;;23.93;;
4047;SDS011;2038;51.728;6.674;2023-11-21T05:13:52;43.23;;;22.33;;
4047;SDS011;2038;51.728;6.674;2023-11-21T05:16:20;40.20;;;21.93;;
4047;SDS011;2038;51.728;6.674;2023-11-21T05:18:47;41.20;;;23.83;;
4047;SDS011;2038;51.728;6.674;2023-11-21T05:21:15;40.50;;;23.53;;
4047;SDS011;2038;51.728;6.674;2023-11-21T05:23:41;39.67;;;23.07;;
4047;SDS011;2038;51.728;6.674;2023-11-21T05:26:07;50.30;;;25.90;;
4047;SDS011;2038;51.728;6.674;2023-11-21T05:28:34;48.93;;;24.83;;
4047;SDS011;2038;51.728;6.674;2023-11-21T05:31:00;48.83;;;24.00;;
4047;SDS011;2038;51.728;6.674;2023-11-21T05:33:26;42.30;;;22.97;;
4047;SDS011;2038;51.728;6.674;2023-11-21T05:35:53;39.73;;;21.93;;
4047;SDS011;2038;51.728;6.674;2023-11-21T05:38:19;39.00;;;23.33;;
4047;SDS011;2038;51.728;6.674;2023-11-21T05:40:46;43.80;;;23.70;;
4047;SDS011;2038;51.728;6.674;2023-11-21T05:43:13;41.50;;;23.60;;
4047;SDS011;2038;51.728;6.674;2023-11-21T05:45:40;58.53;;;26.40;;
4047;SDS011;2038;51.728;6.674;2023-11-21T05:48:06;60.33;;;25.33;;
4047;SDS011;2038;51.728;6.674;2023-11-21T05:50:32;41.30;;;21.90;;
4047;SDS011;2038;51.728;6.674;2023-11-21T05:52:58;40.10;;;24.67;;
4047;SDS011;2038;51.728;6.674;2023-11-21T05:55:25;40.03;;;23.07;;
4047;SDS011;2038;51.728;6.674;2023-11-21T05:57:51;40.13;;;22.77;;
4047;SDS011;2038;51.728;6.674;2023-11-21T06:00:18;40.20;;;22.67;;
4047;SDS011;2038;51.728;6.674;2023-11-21T06:02:48;40.83;;;22.83;;
4047;SDS011;2038;51.728;6.674;2023-11-21T06:05:16;41.63;;;22.47;;
4047;SDS011;2038;51.728;6.674;2023-11-21T06:07:44;46.30;;;25.57;;
4047;SDS011;2038;51.728;6.674;2023-11-21T06:10:10;55.93;;;25.50;;
4047;SDS011;2038;51.728;6.674;2023-11-21T06:12:39;41.13;;;22.80;;
4047;SDS011;2038;51.728;6.674;2023-11-21T06:15:07;35.13;;;22.23;;
4047;SDS011;2038;51.728;6.674;2023-11-21T06:17:38;42.20;;;23.63;;
4047;SDS011;2038;51.728;6.674;2023-11-21T06:20:07;36.80;;;22.13;;
4047;SDS011;2038;51.728;6.674;2023-11-21T06:22:39;40.87;;;24.43;;
4047;SDS011;2038;51.728;6.674;2023-11-21T06:25:08;38.17;;;24.40;;
4047;SDS011;2038;51.728;6.674;2023-11-21T06:27:37;44.77;;;23.80;;
4047;SDS011;2038;51.728;6.674;2023-11-21T06:30:06;42.33;;;22.87;;
4047;SDS011;2038;51.728;6.674;2023-11-21T06:32:38;41.93;;;23.37;;
4047;SDS011;2038;51.728;6.674;2023-11-21T06:35:05;31.90;;;21.80;;
4047;SDS011;2038;51.728;6.674;2023-11-21T06:37:33;41.20;;;22.83;;
4047;SDS011;2038;51.728;6.674;2023-11-21T06:40:00;37.10;;;22.40;;
4047;SDS011;2038;51.728;6.674;2023-11-21T06:42:28;34.27;;;20.40;;
4047;SDS011;2038;51.728;6.674;2023-11-21T06:44:55;35.57;;;19.20;;
4047;SDS011;2038;51.728;6.674;2023-11-21T06:47:22;39.70;;;22.80;;
4047;SDS011;2038;51.728;6.674;2023-11-21T06:49:54;36.17;;;21.37;;
4047;SDS011;2038;51.728;6.674;2023-11-21T06:52:21;36.60;;;23.00;;
4047;SDS011;2038;51.728;6.674;2023-11-21T06:54:47;34.40;;;22.60;;
4047;SDS011;2038;51.728;6.674;2023-11-21T06:57:17;35.50;;;21.33;;
4047;SDS011;2038;51.728;6.674;2023-11-21T06:59:43;35.00;;;21.83;;
4047;SDS011;2038;51.728;6.674;2023-11-21T07:02:10;36.10;;;21.40;;
4047;SDS011;2038;51.728;6.674;2023-11-21T07:04:36;38.53;;;21.23;;
4047;SDS011;2038;51.728;6.674;2023-11-21T07:07:02;45.93;;;26.20;;
4047;SDS011;2038;51.728;6.674;2023-11-21T07:09:29;41.00;;;23.77;;
4047;SDS011;2038;51.728;6.674;2023-11-21T07:11:56;43.77;;;24.30;;
4047;SDS011;2038;51.728;6.674;2023-11-21T07:14:22;38.93;;;22.90;;
4047;SDS011;2038;51.728;6.674;2023-11-21T07:16:48;43.90;;;24.07;;
4047;SDS011;2038;51.728;6.674;2023-11-21T07:19:16;44.13;;;23.30;;
4047;SDS011;2038;51.728;6.674;2023-11-21T07:21:42;43.47;;;23.77;;
4047;SDS011;2038;51.728;6.674;2023-11-21T07:24:08;62.00;;;24.17;;
4047;SDS011;2038;51.728;6.674;2023-11-21T07:26:36;37.77;;;21.97;;
4047;SDS011;2038;51.728;6.674;2023-11-21T07:29:02;39.47;;;23.20;;
4047;SDS011;2038;51.728;6.674;2023-11-21T07:31:29;39.80;;;23.33;;
4047;SDS011;2038;51.728;6.674;2023-11-21T07:33:56;39.17;;;22.87;;
4047;SDS011;2038;51.728;6.674;2023-11-21T07:36:22;43.67;;;23.40;;
4047;SDS011;2038;51.728;6.674;2023-11-21T07:38:49;41.47;;;23.87;;
4047;SDS011;2038;51.728;6.674;2023-11-21T07:41:16;43.83;;;23.57;;
4047;SDS011;2038;51.728;6.674;2023-11-21T07:43:44;48.30;;;25.97;;
4047;SDS011;2038;51.728;6.674;2023-11-21T07:46:10;41.20;;;23.30;;
4047;SDS011;2038;51.728;6.674;2023-11-21T07:48:37;41.47;;;23.27;;
4047;SDS011;2038;51.728;6.674;2023-11-21T07:51:06;44.00;;;24.77;;
4047;SDS011;2038;51.728;6.674;2023-11-21T07:53:33;46.10;;;22.63;;
4047;SDS011;2038;51.728;6.674;2023-11-21T07:56:03;39.43;;;24.03;;
4047;SDS011;2038;51.728;6.674;2023-11-21T07:58:32;46.90;;;24.57;;
4047;SDS011;2038;51.728;6.674;2023-11-21T08:01:00;45.67;;;23.23;;
4047;SDS011;2038;51.728;6.674;2023-11-21T08:03:28;44.07;;;23.73;;
4047;SDS011;2038;51.728;6.674;2023-11-21T08:05:55;40.50;;;24.83;;
4047;SDS011;2038;51.728;6.674;2023-11-21T08:08:25;42.40;;;22.97;;
4047;SDS011;2038;51.728;6.674;2023-11-21T08:10:52;39.20;;;23.37;;
4047;SDS011;2038;51.728;6.674;2023-11-21T08:13:22;38.30;;;23.33;;
4047;SDS011;2038;51.728;6.674;2023-11-21T08:15:55;43.20;;;23.53;;
4047;SDS011;2038;51.728;6.674;2023-11-21T08:18:28;38.37;;;22.50;;
4047;SDS011;2038;51.728;6.674;2023-11-21T08:20:55;38.47;;;21.33;;
4047;SDS011;2038;51.728;6.674;2023-11-21T08:23:22;40.47;;;22.40;;
4047;SDS011;2038;51.728;6.674;2023-11-21T08:25:52;44.50;;;22.87;;
4047;SDS011;2038;51.728;6.674;2023-11-21T08:28:19;43.47;;;23.67;;
4047;SDS011;2038;51.728;6.674;2023-11-21T08:30:47;45.67;;;25.13;;
4047;SDS011;2038;51.728;6.674;2023-11-21T08:33:13;41.23;;;22.37;;
4047;SDS011;2038;51.728;6.674;2023-11-21T08:35:39;44.63;;;24.83;;
4047;SDS011;2038;51.728;6.674;2023-11-21T08:38:05;41.00;;;21.50;;
4047;SDS011;2038;51.728;6.674;2023-11-21T08:40:32;42.73;;;24.37;;
4047;SDS011;2038;51.728;6.674;2023-11-21T08:43:00;39.97;;;21.70;;
4047;SDS011;2038;51.728;6.674;2023-11-21T08:45:26;41.43;;;22.67;;
4047;SDS011;2038;51.728;6.674;2023-11-21T08:47:52;40.27;;;21.13;;
4047;SDS011;2038;51.728;6.674;2023-11-21T08:50:18;34.17;;;21.77;;
4047;SDS011;2038;51.728;6.674;2023-11-21T08:52:45;41.77;;;22.80;;
4047;SDS011;2038;51.728;6.674;2023-11-21T08:55:11;38.10;;;21.77;;
4047;SDS011;2038;51.728;6.674;2023-11-21T08:57:39;38.00;;;19.97;;
4047;SDS011;2038;51.728;6.674;2023-11-21T09:00:07;40.67;;;25.40;;
4047;SDS011;2038;51.728;6.674;2023-11-21T09:02:38;43.27;;;22.93;;
4047;SDS011;2038;51.728;6.674;2023-11-21T09:05:06;49.60;;;25.33;;
4047;SDS011;2038;51.728;6.674;2023-11-21T09:07:38;40.47;;;23.63;;
4047;SDS011;2038;51.728;6.674;2023-11-21T09:10:06;40.53;;;23.33;;
4047;SDS011;2038;51.728;6.674;2023-11-21T09:12:34;48.90;;;25.37;;
4047;SDS011;2038;51.728;6.674;2023-11-21T09:15:05;35.43;;;21.47;;
4047;SDS011;2038;51.728;6.674;2023-11-21T09:17:34;40.77;;;23.10;;
4047;SDS011;2038;51.728;6.674;2023-11-21T09:20:01;44.13;;;24.53;;
4047;SDS011;2038;51.728;6.674;2023-11-21T09:22:32;38.40;;;21.60;;
4047;SDS011;2038;51.728;6.674;2023-11-21T09:24:59;38.87;;;21.23;;
4047;SDS011;2038;51.728;6.674;2023-11-21T09:27:25;49.50;;;26.63;;
4047;SDS011;2038;51.728;6.674;2023-11-21T09:29:51;48.73;;;25.43;;
4047;SDS011;2038;51.728;6.674;2023-11-21T09:32:18;45.60;;;25.40;;
4047;SDS011;2038;51.728;6.674;2023-11-21T09:34:46;50.47;;;25.97;;
4047;SDS011;2038;51.728;6.674;2023-11-21T09:37:13;45.90;;;23.90;;
4047;SDS011;2038;51.728;6.674;2023-11-21T09:39:40;47.93;;;24.40;;
4047;SDS011;2038;51.728;6.674;2023-11-21T09:42:13;45.30;;;25.37;;
4047;SDS011;2038;51.728;6.674;2023-11-21T09:47:29;47.50;;;26.40;;
4047;SDS011;2038;51.728;6.674;2023-11-21T09:49:58;50.30;;;25.33;;
4047;SDS011;2038;51.728;6.674;2023-11-21T09:52:27;53.33;;;26.40;;
4047;SDS011;2038;51.728;6.674;2023-11-21T09:54:57;50.50;;;25.50;;
4047;SDS011;2038;51.728;6.674;2023-11-21T09:57:25;47.23;;;26.13;;
4047;SDS011;2038;51.728;6.674;2023-11-21T09:59:54;49.53;;;26.00;;
4047;SDS011;2038;51.728;6.674;2023-11-21T10:02:28;46.07;;;24.40;;
4047;SDS011;2038;51.728;6.674;2023-11-21T10:04:55;49.83;;;24.77;;
4047;SDS011;2038;51.728;6.674;2023-11-21T10:07:24;43.70;;;24.00;;
4047;SDS011;2038;51.728;6.674;2023-11-21T10:09:51;42.97;;;22.07;;
4047;SDS011;2038;51.728;6.674;2023-11-21T10:12:20;43.33;;;23.47;;
4047;SDS011;2038;51.728;6.674;2023-11-21T10:14:49;47.03;;;25.90;;
4047;SDS011;2038;51.728;6.674;2023-11-21T10:17:17;43.93;;;22.67;;
4047;SDS011;2038;51.728;6.674;2023-11-21T10:19:48;38.47;;;20.67;;
4047;SDS011;2038;51.728;6.674;2023-11-21T10:22:15;32.63;;;20.13;;
4047;SDS011;2038;51.728;6.674;2023-11-21T10:24:42;33.70;;;19.50;;
4047;SDS011;2038;51.728;6.674;2023-11-21T10:27:08;34.20;;;20.80;;
4047;SDS011;2038;51.728;6.674;2023-11-21T10:29:35;34.70;;;20.20;;
4047;SDS011;2038;51.728;6.674;2023-11-21T10:32:04;42.00;;;23.07;;
4047;SDS011;2038;51.728;6.674;2023-11-21T10:34:30;41.50;;;21.90;;
4047;SDS011;2038;51.728;6.674;2023-11-21T10:36:58;40.00;;;21.30;;
4047;SDS011;2038;51.728;6.674;2023-11-21T10:39:36;39.40;;;20.43;;
4047;SDS011;2038;51.728;6.674;2023-11-21T10:42:03;44.87;;;21.80;;
4047;SDS011;2038;51.728;6.674;2023-11-21T10:44:33;44.73;;;20.70;;
4047;SDS011;2038;51.728;6.674;2023-11-21T10:47:00;33.57;;;19.40;;
4047;SDS011;2038;51.728;6.674;2023-11-21T10:49:27;34.10;;;19.57;;
4047;SDS011;2038;51.728;6.674;2023-11-21T10:51:53;37.43;;;20.80;;
4047;SDS011;2038;51.728;6.674;2023-11-21T10:54:20;39.10;;;21.10;;
4047;SDS011;2038;51.728;6.674;2023-11-21T10:56:50;39.70;;;20.87;;
4047;SDS011;2038;51.728;6.674;2023-11-21T10:59:24;33.77;;;18.23;;
4047;SDS011;2038;51.728;6.674;2023-11-21T11:01:54;39.13;;;22.10;;
4047;SDS011;2038;51.728;6.674;2023-11-21T11:04:25;38.90;;;20.63;;
4047;SDS011;2038;51.728;6.674;2023-11-21T11:07:01;38.13;;;19.10;;
4047;SDS011;2038;51.728;6.674;2023-11-21T11:09:30;34.67;;;19.70;;
4047;SDS011;2038;51.728;6.674;2023-11-21T11:12:01;37.07;;;21.70;;
4047;SDS011;2038;51.728;6.674;2023-11-21T11:14:29;40.77;;;21.60;;
4047;SDS011;2038;51.728;6.674;2023-11-21T11:16:57;29.80;;;19.53;;
4047;SDS011;2038;51.728;6.674;2023-11-21T11:19:25;36.50;;;21.20;;
4047;SDS011;2038;51.728;6.674;2023-11-21T11:25:03;30.33;;;18.43;;
4047;SDS011;2038;51.728;6.674;2023-11-21T11:30:41;33.87;;;18.97;;
4047;SDS011;2038;51.728;6.674;2023-11-21T11:38:53;33.93;;;17.60;;
4047;SDS011;2038;51.728;6.674;2023-11-21T11:41:30;27.87;;;17.63;;
4047;SDS011;2038;51.728;6.674;2023-11-21T11:44:02;24.60;;;16.83;;
4047;SDS011;2038;51.728;6.674;2023-11-21T11:49:24;27.77;;;15.20;;
4047;SDS011;2038;51.728;6.674;2023-11-21T11:55:30;24.73;;;14.30;;
4047;SDS011;2038;51.728;6.674;2023-11-21T11:57:57;26.77;;;14.23;;
4047;SDS011;2038;51.728;6.674;2023-11-21T12:02:56;22.83;;;13.73;;
4047;SDS011;2038;51.728;6.674;2023-11-21T12:05:27;24.97;;;13.27;;
4047;SDS011;2038;51.728;6.674;2023-11-21T12:07:58;24.40;;;12.87;;
4047;SDS011;2038;51.728;6.674;2023-11-21T12:10:29;23.23;;;13.27;;
4047;SDS011;2038;51.728;6.674;2023-11-21T12:12:59;29.30;;;15.37;;
4047;SDS011;2038;51.728;6.674;2023-11-21T12:15:35;23.50;;;14.07;;
4047;SDS011;2038;51.728;6.674;2023-11-21T12:18:02;29.53;;;15.73;;
4047;SDS011;2038;51.728;6.674;2023-11-21T12:20:29;26.67;;;14.57;;
4047;SDS011;2038;51.728;6.674;2023-11-21T12:23:03;28.67;;;15.83;;
4047;SDS011;2038;51.728;6.674;2023-11-21T12:25:31;36.07;;;17.00;;
4047;SDS011;2038;51.728;6.674;2023-11-21T12:27:58;23.83;;;15.20;;
4047;SDS011;2038;51.728;6.674;2023-11-21T12:30:26;35.90;;;17.20;;
4047;SDS011;2038;51.728;6.674;2023-11-21T12:32:56;40.33;;;19.40;;
4047;SDS011;2038;51.728;6.674;2023-11-21T12:35:25;33.20;;;17.20;;
4047;SDS011;2038;51.728;6.674;2023-11-21T12:37:55;32.47;;;16.73;;
4047;SDS011;2038;51.728;6.674;2023-11-21T12:40:24;34.00;;;16.97;;
4047;SDS011;2038;51.728;6.674;2023-11-21T12:42:54;32.63;;;17.30;;
4047;SDS011;2038;51.728;6.674;2023-11-21T12:45:23;29.80;;;17.50;;
4047;SDS011;2038;51.728;6.674;2023-11-21T12:47:59;29.87;;;16.30;;
4047;SDS011;2038;51.728;6.674;2023-11-21T12:50:32;33.17;;;17.10;;
4047;SDS011;2038;51.728;6.674;2023-11-21T12:53:05;35.30;;;19.30;;
4047;SDS011;2038;51.728;6.674;2023-11-21T12:55:35;41.80;;;20.20;;
4047;SDS011;2038;51.728;6.674;2023-11-21T12:58:02;40.17;;;18.90;;
4047;SDS011;2038;51.728;6.674;2023-11-21T13:00:38;34.03;;;19.23;;
4047;SDS011;2038;51.728;6.674;2023-11-21T13:03:10;32.80;;;19.20;;
4047;SDS011;2038;51.728;6.674;2023-11-21T13:05:41;30.07;;;16.87;;
4047;SDS011;2038;51.728;6.674;2023-11-21T13:08:11;23.97;;;14.97;;
4047;SDS011;2038;51.728;6.674;2023-11-21T13:10:39;25.30;;;15.13;;
4047;SDS011;2038;51.728;6.674;2023-11-21T13:13:12;23.20;;;15.50;;
4047;SDS011;2038;51.728;6.674;2023-11-21T13:15:53;23.90;;;14.13;;
4047;SDS011;2038;51.728;6.674;2023-11-21T13:18:21;26.67;;;16.27;;
4047;SDS011;2038;51.728;6.674;2023-11-21T13:20:52;30.70;;;16.37;;
4047;SDS011;2038;51.728;6.674;2023-11-21T13:23:20;26.50;;;16.80;;
4047;SDS011;2038;51.728;6.674;2023-11-21T13:25:47;28.27;;;16.43;;
4047;SDS011;2038;51.728;6.674;2023-11-21T13:28:15;27.77;;;17.03;;
4047;SDS011;2038;51.728;6.674;2023-11-21T13:30:43;27.93;;;16.07;;
4047;SDS011;2038;51.728;6.674;2023-11-21T13:33:10;32.77;;;17.23;;
4047;SDS011;2038;51.728;6.674;2023-11-21T13:35:43;30.70;;;17.13;;
4047;SDS011;2038;51.728;6.674;2023-11-21T13:38:14;33.70;;;18.43;;
4047;SDS011;2038;51.728;6.674;2023-11-21T13:40:46;30.10;;;17.10;;
4047;SDS011;2038;51.728;6.674;2023-11-21T13:43:18;31.00;;;18.53;;
4047;SDS011;2038;51.728;6.674;2023-11-21T13:45:49;28.10;;;16.73;;
4047;SDS011;2038;51.728;6.674;2023-11-21T13:48:26;31.67;;;16.87;;
4047;SDS011;2038;51.728;6.674;2023-11-21T13:51:10;27.53;;;16.47;;
4047;SDS011;2038;51.728;6.674;2023-11-21T13:53:43;31.57;;;15.90;;
4047;SDS011;2038;51.728;6.674;2023-11-21T13:56:15;27.27;;;15.60;;
4047;SDS011;2038;51.728;6.674;2023-11-21T13:58:46;27.07;;;15.90;;
4047;SDS011;2038;51.728;6.674;2023-11-21T14:01:19;24.07;;;14.00;;
4047;SDS011;2038;51.728;6.674;2023-11-21T14:03:57;26.17;;;15.40;;
4047;SDS011;2038;51.728;6.674;2023-11-21T14:06:37;25.50;;;13.80;;
4047;SDS011;2038;51.728;6.674;2023-11-21T14:09:13;23.77;;;15.70;;
4047;SDS011;2038;51.728;6.674;2023-11-21T14:11:52;28.20;;;13.70;;
4047;SDS011;2038;51.728;6.674;2023-11-21T14:14:23;22.30;;;12.43;;
4047;SDS011;2038;51.728;6.674;2023-11-21T14:16:53;24.40;;;14.57;;
4047;SDS011;2038;51.728;6.674;2023-11-21T14:19:23;20.83;;;12.70;;
4047;SDS011;2038;51.728;6.674;2023-11-21T14:21:56;29.70;;;14.47;;
4047;SDS011;2038;51.728;6.674;2023-11-21T14:24:23;22.20;;;13.40;;
4047;SDS011;2038;51.728;6.674;2023-11-21T14:26:49;25.67;;;14.07;;
4047;SDS011;2038;51.728;6.674;2023-11-21T14:29:16;28.13;;;13.47;;
4047;SDS011;2038;51.728;6.674;2023-11-21T14:31:48;20.47;;;11.90;;
4047;SDS011;2038;51.728;6.674;2023-11-21T14:34:21;20.27;;;11.70;;
4047;SDS011;2038;51.728;6.674;2023-11-21T14:36:48;19.60;;;11.60;;
4047;SDS011;2038;51.728;6.674;2023-11-21T14:39:15;22.80;;;13.13;;
4047;SDS011;2038;51.728;6.674;2023-11-21T14:41:51;18.90;;;10.67;;
4047;SDS011;2038;51.728;6.674;2023-11-21T14:44:21;19.03;;;11.73;;
4047;SDS011;2038;51.728;6.674;2023-11-21T14:46:51;21.67;;;12.90;;
4047;SDS011;2038;51.728;6.674;2023-11-21T14:49:19;17.10;;;11.03;;
4047;SDS011;2038;51.728;6.674;2023-11-21T14:51:48;17.93;;;10.60;;
4047;SDS011;2038;51.728;6.674;2023-11-21T14:54:28;19.63;;;11.97;;
4047;SDS011;2038;51.728;6.674;2023-11-21T14:57:11;17.50;;;10.83;;
4047;SDS011;2038;51.728;6.674;2023-11-21T14:59:44;19.60;;;13.20;;
4047;SDS011;2038;51.728;6.674;2023-11-21T15:02:17;20.77;;;11.90;;
4047;SDS011;2038;51.728;6.674;2023-11-21T15:05:07;21.70;;;11.63;;
4047;SDS011;2038;51.728;6.674;2023-11-21T15:07:39;17.50;;;11.67;;
4047;SDS011;2038;51.728;6.674;2023-11-21T15:10:06;18.40;;;11.07;;
4047;SDS011;2038;51.728;6.674;2023-11-21T15:12:39;18.43;;;11.53;;
4047;SDS011;2038;51.728;6.674;2023-11-21T15:15:08;20.80;;;12.10;;
4047;SDS011;2038;51.728;6.674;2023-11-21T15:17:35;20.33;;;13.33;;
4047;SDS011;2038;51.728;6.674;2023-11-21T15:20:02;21.90;;;13.47;;